sensor_id;sensor_type;location;lat;lon;timestamp;temperature;humidity
10868;DHT22;62667;48.698;8.762;2023-06-14T00:02:22;15.50;37.30
10868;DHT22;62667;48.698;8.762;2023-06-14T00:04:49;15.10;37.70
10868;DHT22;62667;48.698;8.762;2023-06-14T00:07:18;15.10;38.00
10868;DHT22;62667;48.698;8.762;2023-06-14T00:09:45;15.10;38.10
10868;DHT22;62667;48.698;8.762;2023-06-14T00:12:12;15.10;38.20
10868;DHT22;62667;48.698;8.762;2023-06-14T00:14:39;15.10;38.30
10868;DHT22;62667;48.698;8.762;2023-06-14T00:17:06;15.20;38.00
10868;DHT22;62667;48.698;8.762;2023-06-14T00:19:35;15.10;38.10
10868;DHT22;62667;48.698;8.762;2023-06-14T00:22:03;15.00;38.30
10868;DHT22;62667;48.698;8.762;2023-06-14T00:24:30;14.90;38.50
10868;DHT22;62667;48.698;8.762;2023-06-14T00:26:57;14.90;38.50
10868;DHT22;62667;48.698;8.762;2023-06-14T00:29:24;14.90;38.30
10868;DHT22;62667;48.698;8.762;2023-06-14T00:31:51;14.90;38.60
10868;DHT22;62667;48.698;8.762;2023-06-14T00:34:18;14.80;39.20
10868;DHT22;62667;48.698;8.762;2023-06-14T00:36:47;14.80;39.30
10868;DHT22;62667;48.698;8.762;2023-06-14T00:39:14;14.60;39.50
10868;DHT22;62667;48.698;8.762;2023-06-14T00:41:41;14.60;39.50
10868;DHT22;62667;48.698;8.762;2023-06-14T00:44:08;14.60;39.50
10868;DHT22;62667;48.698;8.762;2023-06-14T00:46:35;14.60;39.50
10868;DHT22;62667;48.698;8.762;2023-06-14T00:49:02;14.60;39.50
10868;DHT22;62667;48.698;8.762;2023-06-14T00:51:30;14.50;39.40
10868;DHT22;62667;48.698;8.762;2023-06-14T00:53:58;14.40;39.60
10868;DHT22;62667;48.698;8.762;2023-06-14T00:56:26;14.40;39.90
10868;DHT22;62667;48.698;8.762;2023-06-14T00:58:53;14.40;39.70
10868;DHT22;62667;48.698;8.762;2023-06-14T01:01:21;14.30;39.80
10868;DHT22;62667;48.698;8.762;2023-06-14T01:03:49;14.30;40.00
10868;DHT22;62667;48.698;8.762;2023-06-14T01:06:21;14.20;40.20
10868;DHT22;62667;48.698;8.762;2023-06-14T01:09:06;14.10;40.60
10868;DHT22;62667;48.698;8.762;2023-06-14T01:11:47;14.10;40.80
10868;DHT22;62667;48.698;8.762;2023-06-14T01:14:20;14.00;40.90
10868;DHT22;62667;48.698;8.762;2023-06-14T01:16:48;13.90;41.00
10868;DHT22;62667;48.698;8.762;2023-06-14T01:19:19;13.90;41.30
10868;DHT22;62667;48.698;8.762;2023-06-14T01:21:51;14.00;40.40
10868;DHT22;62667;48.698;8.762;2023-06-14T01:24:19;14.00;41.10
10868;DHT22;62667;48.698;8.762;2023-06-14T01:26:52;14.00;40.00
10868;DHT22;62667;48.698;8.762;2023-06-14T01:29:22;14.00;41.20
10868;DHT22;62667;48.698;8.762;2023-06-14T01:31:52;13.90;41.10
10868;DHT22;62667;48.698;8.762;2023-06-14T01:34:20;13.50;42.40
10868;DHT22;62667;48.698;8.762;2023-06-14T01:36:47;13.40;42.70
10868;DHT22;62667;48.698;8.762;2023-06-14T01:39:18;13.40;43.10
10868;DHT22;62667;48.698;8.762;2023-06-14T01:41:47;13.50;42.40
10868;DHT22;62667;48.698;8.762;2023-06-14T01:44:17;13.40;42.80
10868;DHT22;62667;48.698;8.762;2023-06-14T01:46:46;13.50;42.90
10868;DHT22;62667;48.698;8.762;2023-06-14T01:49:14;13.40;42.90
10868;DHT22;62667;48.698;8.762;2023-06-14T01:51:41;13.40;43.00
10868;DHT22;62667;48.698;8.762;2023-06-14T03:13:10;12.50;45.60
10868;DHT22;62667;48.698;8.762;2023-06-14T03:15:37;12.40;46.10
10868;DHT22;62667;48.698;8.762;2023-06-14T03:18:07;12.30;46.30
10868;DHT22;62667;48.698;8.762;2023-06-14T03:20:35;12.20;46.40
10868;DHT22;62667;48.698;8.762;2023-06-14T03:23:04;12.30;46.70
10868;DHT22;62667;48.698;8.762;2023-06-14T03:25:32;12.30;46.50
10868;DHT22;62667;48.698;8.762;2023-06-14T03:28:01;12.40;46.00
10868;DHT22;62667;48.698;8.762;2023-06-14T03:30:30;12.30;46.20
10868;DHT22;62667;48.698;8.762;2023-06-14T03:32:57;12.20;46.60
10868;DHT22;62667;48.698;8.762;2023-06-14T03:35:26;12.20;46.70
10868;DHT22;62667;48.698;8.762;2023-06-14T03:37:54;12.30;46.80
10868;DHT22;62667;48.698;8.762;2023-06-14T03:40:23;12.30;47.00
10868;DHT22;62667;48.698;8.762;2023-06-14T03:42:52;12.20;47.20
10868;DHT22;62667;48.698;8.762;2023-06-14T03:45:20;12.20;47.00
10868;DHT22;62667;48.698;8.762;2023-06-14T05:49:00;14.00;44.30
10868;DHT22;62667;48.698;8.762;2023-06-14T05:51:27;14.10;45.00
10868;DHT22;62667;48.698;8.762;2023-06-14T05:53:54;14.10;45.00
10868;DHT22;62667;48.698;8.762;2023-06-14T05:56:21;14.20;44.90
10868;DHT22;62667;48.698;8.762;2023-06-14T05:58:50;14.30;44.60
10868;DHT22;62667;48.698;8.762;2023-06-14T06:01:17;14.60;43.70
10868;DHT22;62667;48.698;8.762;2023-06-14T06:03:44;14.60;43.00
10868;DHT22;62667;48.698;8.762;2023-06-14T06:06:12;14.60;43.90
10868;DHT22;62667;48.698;8.762;2023-06-14T06:08:39;14.90;43.00
10868;DHT22;62667;48.698;8.762;2023-06-14T06:11:06;15.00;42.30
10868;DHT22;62667;48.698;8.762;2023-06-14T06:13:33;15.10;43.10
10868;DHT22;62667;48.698;8.762;2023-06-14T06:16:03;15.20;42.90
10868;DHT22;62667;48.698;8.762;2023-06-14T06:18:31;15.20;42.50
10868;DHT22;62667;48.698;8.762;2023-06-14T06:20:58;15.30;42.90
10868;DHT22;62667;48.698;8.762;2023-06-14T06:23:25;15.50;42.60
10868;DHT22;62667;48.698;8.762;2023-06-14T06:25:52;15.50;43.40
10868;DHT22;62667;48.698;8.762;2023-06-14T06:28:19;15.60;43.20
10868;DHT22;62667;48.698;8.762;2023-06-14T06:30:46;15.80;43.00
10868;DHT22;62667;48.698;8.762;2023-06-14T06:33:15;15.90;42.60
10868;DHT22;62667;48.698;8.762;2023-06-14T06:35:42;16.20;40.50
10868;DHT22;62667;48.698;8.762;2023-06-14T06:38:10;16.10;41.10
10868;DHT22;62667;48.698;8.762;2023-06-14T06:40:37;16.20;40.50
10868;DHT22;62667;48.698;8.762;2023-06-14T06:43:04;16.30;39.50
10868;DHT22;62667;48.698;8.762;2023-06-14T06:45:31;16.50;40.20
10868;DHT22;62667;48.698;8.762;2023-06-14T06:47:58;16.60;39.60
10868;DHT22;62667;48.698;8.762;2023-06-14T06:50:27;16.90;39.10
10868;DHT22;62667;48.698;8.762;2023-06-14T06:52:54;16.90;39.60
10868;DHT22;62667;48.698;8.762;2023-06-14T06:55:21;16.90;38.30
10868;DHT22;62667;48.698;8.762;2023-06-14T06:57:48;17.10;37.90
10868;DHT22;62667;48.698;8.762;2023-06-14T07:00:18;17.20;37.40
10868;DHT22;62667;48.698;8.762;2023-06-14T07:02:46;17.40;36.20
10868;DHT22;62667;48.698;8.762;2023-06-14T07:05:13;17.50;35.40
10868;DHT22;62667;48.698;8.762;2023-06-14T07:07:41;17.70;33.90
10868;DHT22;62667;48.698;8.762;2023-06-14T07:10:09;17.80;33.90
10868;DHT22;62667;48.698;8.762;2023-06-14T07:12:36;17.80;34.70
10868;DHT22;62667;48.698;8.762;2023-06-14T07:15:06;18.00;34.20
10868;DHT22;62667;48.698;8.762;2023-06-14T07:17:34;18.10;33.90
10868;DHT22;62667;48.698;8.762;2023-06-14T07:20:02;18.30;33.70
10868;DHT22;62667;48.698;8.762;2023-06-14T07:22:33;18.50;32.70
10868;DHT22;62667;48.698;8.762;2023-06-14T07:25:02;18.60;32.60
10868;DHT22;62667;48.698;8.762;2023-06-14T07:27:29;18.70;31.00
10868;DHT22;62667;48.698;8.762;2023-06-14T07:29:56;19.00;30.90
10868;DHT22;62667;48.698;8.762;2023-06-14T07:32:23;19.10;29.70
10868;DHT22;62667;48.698;8.762;2023-06-14T07:34:50;19.30;29.90
10868;DHT22;62667;48.698;8.762;2023-06-14T07:37:18;19.40;28.60
10868;DHT22;62667;48.698;8.762;2023-06-14T07:39:45;19.50;28.40
10868;DHT22;62667;48.698;8.762;2023-06-14T07:42:13;19.70;27.30
10868;DHT22;62667;48.698;8.762;2023-06-14T07:44:40;19.80;27.90
10868;DHT22;62667;48.698;8.762;2023-06-14T07:47:07;19.90;27.70
10868;DHT22;62667;48.698;8.762;2023-06-14T07:49:34;20.00;27.70
10868;DHT22;62667;48.698;8.762;2023-06-14T07:52:02;20.20;27.50
10868;DHT22;62667;48.698;8.762;2023-06-14T07:54:30;20.30;27.10
10868;DHT22;62667;48.698;8.762;2023-06-14T07:56:58;20.30;27.20
10868;DHT22;62667;48.698;8.762;2023-06-14T07:59:28;20.40;26.90
10868;DHT22;62667;48.698;8.762;2023-06-14T08:01:55;20.50;27.20
10868;DHT22;62667;48.698;8.762;2023-06-14T08:04:22;20.50;28.20
10868;DHT22;62667;48.698;8.762;2023-06-14T08:06:50;20.50;27.30
10868;DHT22;62667;48.698;8.762;2023-06-14T08:09:17;20.70;28.00
10868;DHT22;62667;48.698;8.762;2023-06-14T08:11:45;20.80;26.90
10868;DHT22;62667;48.698;8.762;2023-06-14T08:14:12;20.90;27.00
10868;DHT22;62667;48.698;8.762;2023-06-14T08:16:41;20.90;26.40
10868;DHT22;62667;48.698;8.762;2023-06-14T08:19:08;20.80;26.90
10868;DHT22;62667;48.698;8.762;2023-06-14T08:21:36;20.80;26.90
10868;DHT22;62667;48.698;8.762;2023-06-14T08:24:03;20.80;27.00
10868;DHT22;62667;48.698;8.762;2023-06-14T08:26:31;20.90;27.50
10868;DHT22;62667;48.698;8.762;2023-06-14T08:28:58;21.00;26.90
10868;DHT22;62667;48.698;8.762;2023-06-14T08:31:25;21.10;27.70
10868;DHT22;62667;48.698;8.762;2023-06-14T08:33:54;21.20;27.60
10868;DHT22;62667;48.698;8.762;2023-06-14T08:36:21;21.30;27.00
10868;DHT22;62667;48.698;8.762;2023-06-14T08:38:49;21.40;28.00
10868;DHT22;62667;48.698;8.762;2023-06-14T08:41:21;21.40;26.30
10868;DHT22;62667;48.698;8.762;2023-06-14T08:43:50;21.30;25.40
10868;DHT22;62667;48.698;8.762;2023-06-14T08:46:18;21.40;25.70
10868;DHT22;62667;48.698;8.762;2023-06-14T08:48:49;21.60;25.40
10868;DHT22;62667;48.698;8.762;2023-06-14T08:51:19;21.60;25.00
10868;DHT22;62667;48.698;8.762;2023-06-14T08:53:52;21.60;25.40
10868;DHT22;62667;48.698;8.762;2023-06-14T08:56:25;21.80;24.70
10868;DHT22;62667;48.698;8.762;2023-06-14T08:58:53;21.80;24.40
10868;DHT22;62667;48.698;8.762;2023-06-14T09:01:22;21.90;25.00
10868;DHT22;62667;48.698;8.762;2023-06-14T09:03:50;21.80;24.50
10868;DHT22;62667;48.698;8.762;2023-06-14T09:06:19;22.00;25.60
10868;DHT22;62667;48.698;8.762;2023-06-14T09:08:48;22.00;24.60
10868;DHT22;62667;48.698;8.762;2023-06-14T09:11:17;22.00;25.40
10868;DHT22;62667;48.698;8.762;2023-06-14T09:13:46;22.10;25.40
10868;DHT22;62667;48.698;8.762;2023-06-14T09:16:14;22.10;25.00
10868;DHT22;62667;48.698;8.762;2023-06-14T09:18:43;22.00;24.30
10868;DHT22;62667;48.698;8.762;2023-06-14T09:21:14;21.80;24.80
10868;DHT22;62667;48.698;8.762;2023-06-14T09:23:45;22.00;25.40
10868;DHT22;62667;48.698;8.762;2023-06-14T09:26:14;22.10;26.10
10868;DHT22;62667;48.698;8.762;2023-06-14T09:28:44;22.30;24.80
10868;DHT22;62667;48.698;8.762;2023-06-14T09:31:12;22.40;26.60
10868;DHT22;62667;48.698;8.762;2023-06-14T09:33:42;22.40;25.50
10868;DHT22;62667;48.698;8.762;2023-06-14T09:36:15;22.40;25.70
10868;DHT22;62667;48.698;8.762;2023-06-14T09:38:53;22.60;25.90
10868;DHT22;62667;48.698;8.762;2023-06-14T09:41:21;22.60;25.40
10868;DHT22;62667;48.698;8.762;2023-06-14T09:43:57;22.70;25.40
10868;DHT22;62667;48.698;8.762;2023-06-14T09:46:27;22.90;24.40
10868;DHT22;62667;48.698;8.762;2023-06-14T09:48:55;22.80;24.50
10868;DHT22;62667;48.698;8.762;2023-06-14T09:51:22;22.80;23.60
10868;DHT22;62667;48.698;8.762;2023-06-14T09:53:50;23.00;23.40
10868;DHT22;62667;48.698;8.762;2023-06-14T09:56:23;23.10;22.80
10868;DHT22;62667;48.698;8.762;2023-06-14T09:58:56;23.30;21.20
10868;DHT22;62667;48.698;8.762;2023-06-14T10:01:25;23.40;21.30
10868;DHT22;62667;48.698;8.762;2023-06-14T10:52:25;24.10;19.10
10868;DHT22;62667;48.698;8.762;2023-06-14T10:55:09;24.30;18.60
10868;DHT22;62667;48.698;8.762;2023-06-14T10:57:39;24.50;18.70
10868;DHT22;62667;48.698;8.762;2023-06-14T11:00:09;24.70;17.70
10868;DHT22;62667;48.698;8.762;2023-06-14T11:03:21;24.80;17.80
10868;DHT22;62667;48.698;8.762;2023-06-14T11:06:14;25.00;19.10
10868;DHT22;62667;48.698;8.762;2023-06-14T11:09:20;24.70;18.00
10868;DHT22;62667;48.698;8.762;2023-06-14T11:12:09;24.40;18.20
10868;DHT22;62667;48.698;8.762;2023-06-14T11:14:38;24.10;18.60
10868;DHT22;62667;48.698;8.762;2023-06-14T11:17:05;24.10;19.10
10868;DHT22;62667;48.698;8.762;2023-06-14T11:19:33;24.30;19.30
10868;DHT22;62667;48.698;8.762;2023-06-14T11:22:00;24.80;19.30
10868;DHT22;62667;48.698;8.762;2023-06-14T11:24:27;25.10;19.50
10868;DHT22;62667;48.698;8.762;2023-06-14T11:26:55;25.40;18.50
10868;DHT22;62667;48.698;8.762;2023-06-14T11:29:24;25.30;18.60
10868;DHT22;62667;48.698;8.762;2023-06-14T11:31:52;25.50;19.10
10868;DHT22;62667;48.698;8.762;2023-06-14T11:34:19;25.60;18.20
10868;DHT22;62667;48.698;8.762;2023-06-14T11:36:47;25.70;17.30
10868;DHT22;62667;48.698;8.762;2023-06-14T11:39:14;25.90;18.20
10868;DHT22;62667;48.698;8.762;2023-06-14T11:41:43;25.90;16.90
10868;DHT22;62667;48.698;8.762;2023-06-14T11:44:11;26.00;16.60
10868;DHT22;62667;48.698;8.762;2023-06-14T11:46:40;26.00;17.00
10868;DHT22;62667;48.698;8.762;2023-06-14T11:49:08;25.70;15.40
10868;DHT22;62667;48.698;8.762;2023-06-14T11:51:35;25.60;16.10
10868;DHT22;62667;48.698;8.762;2023-06-14T11:54:04;25.90;16.70
10868;DHT22;62667;48.698;8.762;2023-06-14T11:56:33;26.00;17.40
10868;DHT22;62667;48.698;8.762;2023-06-14T11:59:03;26.20;16.40
10868;DHT22;62667;48.698;8.762;2023-06-14T12:01:31;26.50;16.50
10868;DHT22;62667;48.698;8.762;2023-06-14T12:06:30;26.70;14.90
10868;DHT22;62667;48.698;8.762;2023-06-14T12:09:03;26.60;28.50
10868;DHT22;62667;48.698;8.762;2023-06-14T13:53:11;29.00;13.20
10868;DHT22;62667;48.698;8.762;2023-06-14T13:55:39;29.10;13.30
10868;DHT22;62667;48.698;8.762;2023-06-14T14:00:34;29.30;12.50
10868;DHT22;62667;48.698;8.762;2023-06-14T14:05:32;29.30;12.70
10868;DHT22;62667;48.698;8.762;2023-06-14T14:07:59;29.30;17.20
10868;DHT22;62667;48.698;8.762;2023-06-14T14:10:26;29.10;17.70
10868;DHT22;62667;48.698;8.762;2023-06-14T14:12:53;28.90;23.00
10868;DHT22;62667;48.698;8.762;2023-06-14T14:15:20;28.90;13.40
10868;DHT22;62667;48.698;8.762;2023-06-14T14:17:48;29.00;27.70
10868;DHT22;62667;48.698;8.762;2023-06-14T14:22:44;29.40;29.20
10868;DHT22;62667;48.698;8.762;2023-06-14T14:27:38;29.40;23.00
10868;DHT22;62667;48.698;8.762;2023-06-14T14:30:06;28.80;40.70
10868;DHT22;62667;48.698;8.762;2023-06-14T14:32:34;28.40;14.10
10868;DHT22;62667;48.698;8.762;2023-06-14T14:39:58;29.00;13.70
10868;DHT22;62667;48.698;8.762;2023-06-14T14:42:25;29.40;13.40
10868;DHT22;62667;48.698;8.762;2023-06-14T14:52:16;30.40;10.80
10868;DHT22;62667;48.698;8.762;2023-06-14T14:54:45;30.60;12.20
10868;DHT22;62667;48.698;8.762;2023-06-14T14:57:12;30.80;11.90
10868;DHT22;62667;48.698;8.762;2023-06-14T14:59:39;30.90;11.10
10868;DHT22;62667;48.698;8.762;2023-06-14T15:02:06;31.00;12.60
10868;DHT22;62667;48.698;8.762;2023-06-14T15:07:00;30.90;10.30
10868;DHT22;62667;48.698;8.762;2023-06-14T15:09:27;30.80;11.10
10868;DHT22;62667;48.698;8.762;2023-06-14T15:11:56;30.90;11.40
10868;DHT22;62667;48.698;8.762;2023-06-14T15:14:24;31.30;13.60
10868;DHT22;62667;48.698;8.762;2023-06-14T15:16:51;31.60;13.20
10868;DHT22;62667;48.698;8.762;2023-06-14T15:21:45;31.90;10.10
10868;DHT22;62667;48.698;8.762;2023-06-14T15:24:13;32.20;20.00
10868;DHT22;62667;48.698;8.762;2023-06-14T15:31:36;32.30;13.10
10868;DHT22;62667;48.698;8.762;2023-06-14T15:34:03;32.30;13.60
10868;DHT22;62667;48.698;8.762;2023-06-14T15:36:31;32.40;22.70
10868;DHT22;62667;48.698;8.762;2023-06-14T15:38:58;32.50;22.90
10868;DHT22;62667;48.698;8.762;2023-06-14T15:41:25;32.60;23.80
10868;DHT22;62667;48.698;8.762;2023-06-14T15:48:49;32.90;9.80
10868;DHT22;62667;48.698;8.762;2023-06-14T15:53:43;33.80;7.60
10868;DHT22;62667;48.698;8.762;2023-06-14T16:03:34;34.10;7.50
10868;DHT22;62667;48.698;8.762;2023-06-14T16:06:01;34.30;7.90
10868;DHT22;62667;48.698;8.762;2023-06-14T16:10:55;34.70;7.10
10868;DHT22;62667;48.698;8.762;2023-06-14T16:13:23;34.80;7.80
10868;DHT22;62667;48.698;8.762;2023-06-14T16:15:50;34.90;7.30
10868;DHT22;62667;48.698;8.762;2023-06-14T16:18:17;35.00;7.70
10868;DHT22;62667;48.698;8.762;2023-06-14T16:20:45;34.90;8.20
10868;DHT22;62667;48.698;8.762;2023-06-14T16:23:13;34.40;8.50
10868;DHT22;62667;48.698;8.762;2023-06-14T16:25:40;34.20;9.00
10868;DHT22;62667;48.698;8.762;2023-06-14T16:28:07;33.90;8.80
10868;DHT22;62667;48.698;8.762;2023-06-14T16:30:34;33.90;8.60
10868;DHT22;62667;48.698;8.762;2023-06-14T16:33:01;33.50;8.40
10868;DHT22;62667;48.698;8.762;2023-06-14T16:35:29;33.30;8.80
10868;DHT22;62667;48.698;8.762;2023-06-14T16:37:58;33.20;8.70
10868;DHT22;62667;48.698;8.762;2023-06-14T16:40:25;33.10;9.30
10868;DHT22;62667;48.698;8.762;2023-06-14T16:42:53;32.40;9.40
10868;DHT22;62667;48.698;8.762;2023-06-14T16:45:20;32.30;10.10
10868;DHT22;62667;48.698;8.762;2023-06-14T16:47:48;32.50;11.00
10868;DHT22;62667;48.698;8.762;2023-06-14T16:50:15;32.30;9.90
10868;DHT22;62667;48.698;8.762;2023-06-14T16:52:42;31.40;10.20
10868;DHT22;62667;48.698;8.762;2023-06-14T16:55:11;31.20;10.70
10868;DHT22;62667;48.698;8.762;2023-06-14T16:57:38;31.20;10.60
10868;DHT22;62667;48.698;8.762;2023-06-14T17:00:07;31.30;10.30
10868;DHT22;62667;48.698;8.762;2023-06-14T17:02:35;31.50;10.40
10868;DHT22;62667;48.698;8.762;2023-06-14T17:05:02;31.50;10.00
10868;DHT22;62667;48.698;8.762;2023-06-14T17:07:30;31.90;10.60
10868;DHT22;62667;48.698;8.762;2023-06-14T17:09:57;31.70;10.50
10868;DHT22;62667;48.698;8.762;2023-06-14T17:12:26;31.70;11.20
10868;DHT22;62667;48.698;8.762;2023-06-14T17:14:53;31.80;9.90
10868;DHT22;62667;48.698;8.762;2023-06-14T17:17:20;31.90;9.90
10868;DHT22;62667;48.698;8.762;2023-06-14T17:19:47;31.70;10.20
10868;DHT22;62667;48.698;8.762;2023-06-14T17:22:15;31.70;10.50
10868;DHT22;62667;48.698;8.762;2023-06-14T17:24:42;31.40;11.20
10868;DHT22;62667;48.698;8.762;2023-06-14T17:27:09;31.30;11.30
10868;DHT22;62667;48.698;8.762;2023-06-14T17:29:38;31.20;11.50
10868;DHT22;62667;48.698;8.762;2023-06-14T17:32:06;30.90;11.10
10868;DHT22;62667;48.698;8.762;2023-06-14T17:34:34;30.60;11.80
10868;DHT22;62667;48.698;8.762;2023-06-14T17:37:02;30.60;12.10
10868;DHT22;62667;48.698;8.762;2023-06-14T17:39:29;30.60;12.00
10868;DHT22;62667;48.698;8.762;2023-06-14T17:41:56;30.40;12.10
10868;DHT22;62667;48.698;8.762;2023-06-14T17:44:23;30.20;12.30
10868;DHT22;62667;48.698;8.762;2023-06-14T17:46:52;30.00;12.80
10868;DHT22;62667;48.698;8.762;2023-06-14T17:54:17;29.60;12.70
10868;DHT22;62667;48.698;8.762;2023-06-14T17:56:44;29.60;12.90
10868;DHT22;62667;48.698;8.762;2023-06-14T17:59:12;29.50;13.00
10868;DHT22;62667;48.698;8.762;2023-06-14T18:01:39;29.50;12.70
10868;DHT22;62667;48.698;8.762;2023-06-14T18:04:07;29.20;13.30
10868;DHT22;62667;48.698;8.762;2023-06-14T18:06:35;29.10;13.70
10868;DHT22;62667;48.698;8.762;2023-06-14T18:09:02;29.10;14.00
10868;DHT22;62667;48.698;8.762;2023-06-14T18:11:29;28.80;14.10
10868;DHT22;62667;48.698;8.762;2023-06-14T18:13:58;28.60;14.90
10868;DHT22;62667;48.698;8.762;2023-06-14T18:16:26;28.20;15.10
10868;DHT22;62667;48.698;8.762;2023-06-14T18:33:43;25.70;17.50
10868;DHT22;62667;48.698;8.762;2023-06-14T18:36:11;25.50;18.20
10868;DHT22;62667;48.698;8.762;2023-06-14T18:38:40;25.30;18.50
10868;DHT22;62667;48.698;8.762;2023-06-14T18:41:07;25.00;19.00
10868;DHT22;62667;48.698;8.762;2023-06-14T18:43:34;24.60;19.60
10868;DHT22;62667;48.698;8.762;2023-06-14T18:46:01;24.50;20.00
10868;DHT22;62667;48.698;8.762;2023-06-14T18:48:28;24.40;20.50
10868;DHT22;62667;48.698;8.762;2023-06-14T18:50:56;24.20;20.30
10868;DHT22;62667;48.698;8.762;2023-06-14T18:53:23;24.10;20.80
10868;DHT22;62667;48.698;8.762;2023-06-14T18:58:21;23.80;21.30
10868;DHT22;62667;48.698;8.762;2023-06-14T19:00:49;23.70;21.80
10868;DHT22;62667;48.698;8.762;2023-06-14T19:03:17;23.60;22.00
10868;DHT22;62667;48.698;8.762;2023-06-14T19:05:44;23.50;22.40
10868;DHT22;62667;48.698;8.762;2023-06-14T19:08:11;23.50;23.20
10868;DHT22;62667;48.698;8.762;2023-06-14T19:10:39;23.40;22.80
10868;DHT22;62667;48.698;8.762;2023-06-14T20:24:44;21.10;27.90
10868;DHT22;62667;48.698;8.762;2023-06-14T20:27:11;20.90;28.40
10868;DHT22;62667;48.698;8.762;2023-06-14T20:29:39;20.90;28.90
10868;DHT22;62667;48.698;8.762;2023-06-14T20:32:07;20.70;29.30
10868;DHT22;62667;48.698;8.762;2023-06-14T20:34:34;20.60;30.40
10868;DHT22;62667;48.698;8.762;2023-06-14T20:51:53;19.60;32.60
10868;DHT22;62667;48.698;8.762;2023-06-14T20:54:21;19.50;33.10
10868;DHT22;62667;48.698;8.762;2023-06-14T20:56:49;19.40;33.20
10868;DHT22;62667;48.698;8.762;2023-06-14T20:59:16;19.40;33.40
10868;DHT22;62667;48.698;8.762;2023-06-14T21:01:43;19.30;33.70
10868;DHT22;62667;48.698;8.762;2023-06-14T21:04:11;19.20;34.00
10868;DHT22;62667;48.698;8.762;2023-06-14T21:06:38;19.10;34.30
10868;DHT22;62667;48.698;8.762;2023-06-14T21:09:05;18.90;34.70
10868;DHT22;62667;48.698;8.762;2023-06-14T21:11:32;18.90;34.70
10868;DHT22;62667;48.698;8.762;2023-06-14T23:00:17;17.50;39.60
10868;DHT22;62667;48.698;8.762;2023-06-14T23:02:44;17.40;40.10
10868;DHT22;62667;48.698;8.762;2023-06-14T23:05:11;17.40;40.10
10868;DHT22;62667;48.698;8.762;2023-06-14T23:07:39;17.30;40.30
10868;DHT22;62667;48.698;8.762;2023-06-14T23:10:07;17.20;40.60
10868;DHT22;62667;48.698;8.762;2023-06-14T23:12:35;17.10;40.90
10868;DHT22;62667;48.698;8.762;2023-06-14T23:15:05;17.00;40.90
10868;DHT22;62667;48.698;8.762;2023-06-14T23:17:33;16.90;40.60
10868;DHT22;62667;48.698;8.762;2023-06-14T23:20:01;16.90;41.50
10868;DHT22;62667;48.698;8.762;2023-06-14T23:25:02;16.90;41.00
10868;DHT22;62667;48.698;8.762;2023-06-14T23:27:32;16.80;41.60
10868;DHT22;62667;48.698;8.762;2023-06-14T23:30:01;16.70;42.10
10868;DHT22;62667;48.698;8.762;2023-06-14T23:32:31;16.60;42.60
